createdAt,value
2018-03-28T06:09:23.256Z,999.10
2018-03-28T06:10:22.389Z,999.08
2018-03-28T06:12:16.445Z,999.12
2018-03-28T06:13:16.099Z,999.09
2018-03-28T06:15:09.852Z,999.02
2018-03-28T06:16:09.755Z,999.05
2018-03-28T06:18:02.275Z,999.06
2018-03-28T06:19:02.580Z,999.06
2018-03-28T06:20:56.731Z,999.09
2018-03-28T06:21:54.929Z,999.07
2018-03-28T06:23:48.484Z,999.08
2018-03-28T06:24:48.198Z,999.10
2018-03-28T06:26:43.312Z,999.12
2018-03-28T06:27:43.219Z,999.14
2018-03-28T06:29:35.770Z,999.11
2018-03-28T06:30:35.737Z,999.08
2018-03-28T06:32:29.895Z,999.12
2018-03-28T06:33:29.528Z,999.14
2018-03-28T06:35:22.536Z,999.13
2018-03-28T06:36:21.365Z,999.16
2018-03-28T06:38:15.490Z,999.19
2018-03-28T06:39:14.723Z,999.15
2018-03-28T06:41:09.233Z,999.18
2018-03-28T06:42:08.804Z,999.17
2018-03-28T06:44:03.139Z,999.16
2018-03-28T06:45:01.492Z,999.11
2018-03-28T06:46:56.538Z,999.12
2018-03-28T06:47:55.600Z,999.05
2018-03-28T06:49:48.510Z,999.06
2018-03-28T06:50:48.166Z,999.04
2018-03-28T06:52:42.335Z,999.00
2018-03-28T06:53:43.421Z,999.01
2018-03-28T06:55:35.193Z,999.04
2018-03-28T06:56:35.029Z,999.07
2018-03-28T06:58:29.534Z,999.08
2018-03-28T06:59:28.447Z,999.12
2018-03-28T07:01:22.448Z,999.06
2018-03-28T07:02:21.754Z,999.08
2018-03-28T07:04:15.480Z,999.09
2018-03-28T07:05:14.775Z,999.07
2018-03-28T07:07:09.090Z,999.07
2018-03-28T07:08:08.093Z,999.06
2018-03-28T07:10:02.362Z,999.03
2018-03-28T07:11:01.675Z,999.05
2018-03-28T07:12:56.679Z,999.03
2018-03-28T07:13:55.528Z,999.07
2018-03-28T07:15:49.514Z,999.02
2018-03-28T07:16:48.342Z,999.04
2018-03-28T07:18:42.283Z,998.99
2018-03-28T07:19:43.275Z,998.98
2018-03-28T07:21:36.014Z,999.06
2018-03-28T07:22:35.918Z,998.98
2018-03-28T07:24:29.869Z,999.01
2018-03-28T07:25:30.278Z,999.00
2018-03-28T07:27:24.612Z,999.10
2018-03-28T07:28:23.787Z,999.07
2018-03-28T07:30:17.459Z,999.04
2018-03-28T07:31:17.184Z,999.03
2018-03-28T07:33:11.317Z,998.99
2018-03-28T07:34:10.307Z,999.02
2018-03-28T07:36:04.258Z,999.05
2018-03-28T07:37:03.905Z,999.05
2018-03-28T07:38:58.743Z,999.06
2018-03-28T07:39:58.224Z,999.11
2018-03-28T07:41:50.728Z,999.11
2018-03-28T07:42:51.146Z,999.11
2018-03-28T07:44:44.522Z,999.04
2018-03-28T07:45:44.504Z,999.05
2018-03-28T07:47:37.522Z,999.06
2018-03-28T07:48:37.298Z,999.01
2018-03-28T07:50:32.523Z,998.98
2018-03-28T07:51:31.501Z,999.02
2018-03-28T07:53:25.804Z,998.99
2018-03-28T07:54:24.868Z,999.01
2018-03-28T07:56:18.297Z,998.97
2018-03-28T07:57:18.296Z,998.99
2018-03-28T07:59:12.792Z,998.97
2018-03-28T08:00:13.013Z,999.00
2018-03-28T08:02:07.001Z,999.01
2018-03-28T08:03:05.711Z,998.98
2018-03-28T08:05:00.302Z,998.93
2018-03-28T08:06:00.775Z,998.95
2018-03-28T08:07:52.645Z,998.90
2018-03-28T08:08:53.707Z,998.92
2018-03-28T08:10:47.097Z,998.89
2018-03-28T08:11:45.245Z,998.88
2018-03-28T08:13:39.004Z,998.85
2018-03-28T08:14:38.359Z,998.84
2018-03-28T08:16:32.393Z,998.82
2018-03-28T08:17:32.809Z,998.83
2018-03-28T08:19:25.765Z,998.77
2018-03-28T08:20:25.135Z,998.83
2018-03-28T08:22:19.654Z,998.78
2018-03-28T08:23:18.367Z,998.78
2018-03-28T08:25:13.629Z,998.74
2018-03-28T08:26:11.993Z,998.77
2018-03-28T08:28:05.917Z,998.76
2018-03-28T08:29:05.900Z,998.73
2018-03-28T08:30:59.405Z,998.68
2018-03-28T08:31:58.343Z,998.64
2018-03-28T08:33:53.095Z,998.60
2018-03-28T08:34:52.667Z,998.63
2018-03-28T08:36:46.546Z,998.61
2018-03-28T08:37:46.741Z,998.62
2018-03-28T08:39:39.780Z,998.63
2018-03-28T08:40:38.583Z,998.59
2018-03-28T08:42:33.590Z,998.59
2018-03-28T08:43:32.092Z,998.56
2018-03-28T08:45:26.435Z,998.55
2018-03-28T08:46:25.475Z,998.51
2018-03-28T08:48:21.679Z,998.52
2018-03-28T08:49:21.266Z,998.54
2018-03-28T08:51:15.094Z,998.53
2018-03-28T08:52:14.805Z,998.51
2018-03-28T08:54:08.362Z,998.53
2018-03-28T08:55:08.366Z,998.53
2018-03-28T08:57:00.771Z,998.50
2018-03-28T08:58:00.570Z,998.50
2018-03-28T08:59:55.030Z,998.47
2018-03-28T09:00:55.409Z,998.47
2018-03-28T09:02:48.492Z,998.50
2018-03-28T09:03:48.799Z,998.48
2018-03-28T09:05:41.889Z,998.48
2018-03-28T09:06:40.863Z,998.48
2018-03-28T09:08:34.890Z,998.47
2018-03-28T09:09:35.338Z,998.46
2018-03-28T09:11:27.842Z,998.43
2018-03-28T09:12:28.322Z,998.42
2018-03-28T09:14:21.598Z,998.42
2018-03-28T09:15:20.540Z,998.42
2018-03-28T09:17:15.193Z,998.40
2018-03-28T09:18:14.876Z,998.39
2018-03-28T09:20:07.944Z,998.34
2018-03-28T09:21:06.721Z,998.30
2018-03-28T09:23:00.865Z,998.24
2018-03-28T09:24:01.676Z,998.28
2018-03-28T09:25:53.963Z,998.25
2018-03-28T09:26:54.880Z,998.23
2018-03-28T09:28:48.256Z,998.26
2018-03-28T09:29:46.873Z,998.20
2018-03-28T09:31:41.596Z,998.15
2018-03-28T09:32:40.951Z,998.15
2018-03-28T09:34:35.479Z,998.10
2018-03-28T09:35:33.696Z,998.01
2018-03-28T09:37:29.671Z,998.03
2018-03-28T09:38:29.156Z,998.04
2018-03-28T09:40:22.099Z,998.04
2018-03-28T09:41:21.362Z,998.03
2018-03-28T09:43:15.993Z,998.00
2018-03-28T09:44:14.847Z,997.96
2018-03-28T09:46:08.479Z,997.91
2018-03-28T09:47:08.044Z,997.96
2018-03-28T09:49:02.271Z,997.91
2018-03-28T09:50:02.501Z,997.90
2018-03-28T09:51:55.682Z,997.88
2018-03-28T09:52:55.675Z,997.94
2018-03-28T09:54:48.721Z,997.88
2018-03-28T09:55:47.102Z,997.83
2018-03-28T09:57:41.115Z,997.85
2018-03-28T09:58:41.548Z,997.85
2018-03-28T10:00:34.951Z,997.83
2018-03-28T10:01:35.351Z,997.82
2018-03-28T10:03:28.235Z,997.83
2018-03-28T10:04:27.181Z,997.79
2018-03-28T10:06:21.954Z,997.87
2018-03-28T10:07:20.213Z,997.87
2018-03-28T10:09:14.906Z,997.79
2018-03-28T10:10:13.434Z,997.79
2018-03-28T10:12:08.539Z,997.74
2018-03-28T10:13:07.201Z,997.76
2018-03-28T10:15:01.543Z,997.78
2018-03-28T10:16:00.346Z,997.78
2018-03-28T10:17:53.948Z,997.76
2018-03-28T10:18:53.942Z,997.76
2018-03-28T10:20:46.980Z,997.77
2018-03-28T10:21:47.406Z,997.75
2018-03-28T10:23:41.311Z,997.75
2018-03-28T10:24:41.383Z,997.76
2018-03-28T10:26:34.247Z,997.74
2018-03-28T10:27:34.124Z,997.70
2018-03-28T10:29:27.777Z,997.67
2018-03-28T10:30:27.925Z,997.63
2018-03-28T10:32:21.163Z,997.65
2018-03-28T10:33:20.214Z,997.64
2018-03-28T10:35:15.038Z,997.66
2018-03-28T10:36:14.037Z,997.65
2018-03-28T10:38:06.899Z,997.62
2018-03-28T10:39:06.302Z,997.64
2018-03-28T10:41:01.060Z,997.61
2018-03-28T10:42:00.899Z,997.60
2018-03-28T10:43:54.313Z,997.62
2018-03-28T10:44:54.288Z,997.56
2018-03-28T10:46:47.929Z,997.55
2018-03-28T10:47:48.403Z,997.45
2018-03-28T10:49:41.696Z,997.43
2018-03-28T10:50:40.109Z,997.39
2018-03-28T10:52:34.252Z,997.40
2018-03-28T10:53:35.264Z,997.42
2018-03-28T10:55:28.510Z,997.38
2018-03-28T10:56:26.995Z,997.40
2018-03-28T10:58:22.009Z,997.40
2018-03-28T10:59:20.923Z,997.42
2018-03-28T11:01:16.333Z,997.36
2018-03-28T11:02:16.063Z,997.34
2018-03-28T11:04:10.989Z,997.32
2018-03-28T11:05:09.557Z,997.31
2018-03-28T11:07:02.922Z,997.27
2018-03-28T11:08:01.684Z,997.23
2018-03-28T11:09:55.704Z,997.25
2018-03-28T11:10:56.313Z,997.19
2018-03-28T11:12:49.851Z,997.20
2018-03-28T11:13:49.621Z,997.12
2018-03-28T11:15:42.114Z,997.03
2018-03-28T11:16:42.523Z,997.05
2018-03-28T11:18:35.597Z,997.01
2018-03-28T11:19:35.979Z,996.98
2018-03-28T11:21:29.667Z,997.09
2018-03-28T11:22:28.889Z,997.11
2018-03-28T11:24:22.208Z,997.10
2018-03-28T11:25:21.386Z,997.07
2018-03-28T11:27:18.263Z,997.03
2018-03-28T11:28:15.080Z,997.05
2018-03-28T11:30:09.481Z,997.04
2018-03-28T11:31:08.210Z,997.00
2018-03-28T11:33:02.965Z,996.93
2018-03-28T11:34:03.068Z,996.94
2018-03-28T11:35:56.143Z,996.87
2018-03-28T11:36:55.658Z,996.85
2018-03-28T11:38:48.699Z,996.82
2018-03-28T11:39:48.543Z,996.77
2018-03-28T11:41:43.323Z,996.71
2018-03-28T11:42:42.262Z,996.67
2018-03-28T11:44:34.757Z,996.61
2018-03-28T11:45:34.153Z,996.59
2018-03-28T11:47:28.237Z,996.60
2018-03-28T11:48:28.560Z,996.59
2018-03-28T11:50:28.247Z,996.53
2018-03-28T11:51:23.048Z,996.54
2018-03-28T11:53:15.384Z,996.54
2018-03-28T11:54:14.594Z,996.52
2018-03-28T11:56:08.915Z,996.45
2018-03-28T11:57:08.858Z,996.44
2018-03-28T11:59:01.632Z,996.40
2018-03-28T12:00:00.417Z,996.41
2018-03-28T12:01:55.621Z,996.43
2018-03-28T12:02:55.366Z,996.37
2018-03-28T12:04:49.828Z,996.22
2018-03-28T12:05:49.061Z,996.25
2018-03-28T12:07:43.316Z,996.21
2018-03-28T12:08:41.661Z,996.14
2018-03-28T12:10:35.719Z,996.09
2018-03-28T12:11:36.545Z,996.08
2018-03-28T12:13:30.145Z,995.99
2018-03-28T12:14:29.403Z,995.98
2018-03-28T12:16:24.271Z,995.95
2018-03-28T12:17:23.380Z,995.92
2018-03-28T12:19:17.366Z,995.88
2018-03-28T12:20:16.338Z,995.84
2018-03-28T12:22:11.015Z,995.84
2018-03-28T12:23:10.902Z,995.75
2018-03-28T12:25:04.385Z,995.73
2018-03-28T12:26:04.366Z,995.73
2018-03-28T12:27:58.005Z,995.70
2018-03-28T12:28:57.527Z,995.65
2018-03-28T12:30:51.020Z,995.59
2018-03-28T12:31:50.138Z,995.56
2018-03-28T12:33:43.967Z,995.58
2018-03-28T12:34:44.338Z,995.57
2018-03-28T12:36:36.926Z,995.56
2018-03-28T12:37:35.846Z,995.49
2018-03-28T12:39:31.048Z,995.45
2018-03-28T12:40:30.207Z,995.42
2018-03-28T12:42:24.429Z,995.40
2018-03-28T12:43:23.050Z,995.38
2018-03-28T12:46:07.835Z,995.31
2018-03-28T12:47:07.788Z,995.28
2018-03-28T12:49:01.634Z,995.21
2018-03-28T12:50:01.210Z,995.20
2018-03-28T12:51:54.814Z,995.14
2018-03-28T12:52:52.955Z,995.14
2018-03-28T12:54:47.568Z,995.07
2018-03-28T12:55:48.228Z,995.09
2018-03-28T12:57:40.898Z,994.95
2018-03-28T12:58:41.079Z,994.91
2018-03-28T13:00:33.957Z,994.90
2018-03-28T13:01:34.888Z,994.89
2018-03-28T13:03:28.202Z,994.81
2018-03-28T13:04:28.432Z,994.77
2018-03-28T13:06:21.777Z,994.72
2018-03-28T13:07:20.018Z,994.71
2018-03-28T13:09:14.211Z,994.60
2018-03-28T13:10:13.164Z,994.55
2018-03-28T13:12:07.966Z,994.50
2018-03-28T13:13:07.462Z,994.45
2018-03-28T13:15:00.055Z,994.41
2018-03-28T13:15:59.366Z,994.39
2018-03-28T13:17:54.021Z,994.40
2018-03-28T13:18:53.036Z,994.36
2018-03-28T13:20:47.727Z,994.32
2018-03-28T13:21:46.408Z,994.28
2018-03-28T13:23:41.451Z,994.24
2018-03-28T13:24:40.537Z,994.22
2018-03-28T13:26:35.274Z,994.18
2018-03-28T13:27:33.724Z,994.15
2018-03-28T13:29:28.235Z,994.06
2018-03-28T13:30:26.839Z,994.04
2018-03-28T13:32:23.733Z,993.99
2018-03-28T13:33:22.756Z,993.95
2018-03-28T13:35:16.533Z,993.92
2018-03-28T13:36:14.574Z,993.84
2018-03-28T13:38:08.719Z,993.82
2018-03-28T13:39:08.088Z,993.80
2018-03-28T13:41:02.842Z,993.67
2018-03-28T13:42:01.139Z,993.62
2018-03-28T13:43:56.517Z,993.51
2018-03-28T13:44:54.914Z,993.47
2018-03-28T13:46:48.902Z,993.39
2018-03-28T13:47:48.095Z,993.36
2018-03-28T13:49:42.864Z,993.34
2018-03-28T13:50:42.469Z,993.31
2018-03-28T13:52:35.908Z,993.31
2018-03-28T13:53:34.981Z,993.33
2018-03-28T13:55:29.380Z,993.28
2018-03-28T13:56:27.682Z,993.25
2018-03-28T13:58:21.806Z,993.27
2018-03-28T13:59:21.148Z,993.24
2018-03-28T14:01:17.046Z,993.21
2018-03-28T14:02:15.256Z,993.23
2018-03-28T14:04:09.886Z,993.16
2018-03-28T14:05:08.028Z,993.15
2018-03-28T14:07:03.604Z,993.12
2018-03-28T14:08:01.738Z,993.12
2018-03-28T14:09:55.643Z,993.10
2018-03-28T14:10:54.992Z,993.06
2018-03-28T14:12:48.950Z,993.05
2018-03-28T14:13:48.444Z,993.05
2018-03-28T14:15:42.181Z,992.98
2018-03-28T14:16:40.807Z,992.98
2018-03-28T14:18:35.568Z,992.94
2018-03-28T14:19:35.361Z,992.88
2018-03-28T14:21:28.764Z,992.88
2018-03-28T14:22:28.087Z,992.85
2018-03-28T14:24:22.327Z,992.77
2018-03-28T14:25:20.933Z,992.80
2018-03-28T14:27:14.010Z,992.78
2018-03-28T14:28:13.816Z,992.79
2018-03-28T14:30:08.970Z,992.74
2018-03-28T14:31:08.950Z,992.72
2018-03-28T14:33:02.186Z,992.72
2018-03-28T14:34:01.834Z,992.61
2018-03-28T14:35:55.641Z,992.57
2018-03-28T14:36:54.208Z,992.51
2018-03-28T14:38:49.213Z,992.49
2018-03-28T14:39:49.028Z,992.50
2018-03-28T14:41:41.923Z,992.43
2018-03-28T14:44:34.936Z,992.34
2018-03-28T14:45:33.734Z,992.36
2018-03-28T14:47:27.422Z,992.34
2018-03-28T14:48:27.702Z,992.35
2018-03-28T14:50:20.819Z,992.32
2018-03-28T14:51:19.971Z,992.32
2018-03-28T14:53:15.087Z,992.23
2018-03-28T14:54:13.468Z,992.19
2018-03-28T14:56:07.920Z,992.13
2018-03-28T14:57:07.268Z,992.11
2018-03-28T14:59:03.097Z,992.09
2018-03-28T15:00:01.617Z,992.05
2018-03-28T15:01:55.429Z,991.94
2018-03-28T15:02:53.526Z,991.90
2018-03-28T15:04:47.616Z,991.84
2018-03-28T15:05:47.418Z,991.83
2018-03-28T15:07:40.992Z,991.76
2018-03-28T15:08:39.648Z,991.77
2018-03-28T15:11:25.761Z,991.61
2018-03-28T15:12:24.233Z,991.61
2018-03-28T15:14:23.284Z,991.62
2018-03-28T15:15:20.261Z,991.63
2018-03-28T15:17:15.480Z,991.56
2018-03-28T15:18:14.093Z,991.51
2018-03-28T15:20:07.843Z,991.41
2018-03-28T15:21:06.002Z,991.36
2018-03-28T15:22:58.956Z,991.24
2018-03-28T15:23:59.917Z,991.22
2018-03-28T15:25:54.529Z,991.15
2018-03-28T15:26:52.703Z,991.15
2018-03-28T15:28:45.918Z,990.93
2018-03-28T15:29:44.541Z,990.82
2018-03-28T15:31:39.359Z,990.75
2018-03-28T15:32:38.717Z,990.81
2018-03-28T15:34:32.203Z,990.77
2018-03-28T15:35:31.769Z,990.80
2018-03-28T15:37:25.985Z,990.74
2018-03-28T15:38:26.493Z,990.73
2018-03-28T15:40:22.544Z,990.67
2018-03-28T15:41:21.382Z,990.66
2018-03-28T15:43:13.463Z,990.62
2018-03-28T15:44:12.719Z,990.60
2018-03-28T15:46:06.774Z,990.54
2018-03-28T15:47:07.450Z,990.52
2018-03-28T15:50:46.571Z,990.43
2018-03-28T15:51:41.487Z,990.34
2018-03-28T15:53:36.007Z,990.37
2018-03-28T15:54:35.164Z,990.44
2018-03-28T15:56:28.251Z,990.38
2018-03-28T15:57:29.100Z,990.47
2018-03-28T15:59:21.874Z,990.44
2018-03-28T16:00:21.584Z,990.38
2018-03-28T16:02:16.326Z,990.38
2018-03-28T16:03:16.350Z,990.38
2018-03-28T16:05:10.683Z,990.31
2018-03-28T16:06:09.677Z,990.37
2018-03-28T16:08:02.969Z,990.40
2018-03-28T16:09:03.264Z,990.40
2018-03-28T16:10:56.317Z,990.39
2018-03-28T16:11:56.016Z,990.34
2018-03-28T16:13:49.989Z,990.33
2018-03-28T16:14:49.391Z,990.29
2018-03-28T16:16:43.020Z,990.30
2018-03-28T16:17:43.085Z,990.31
2018-03-28T16:19:36.412Z,990.28
2018-03-28T16:20:36.099Z,990.34
2018-03-28T16:22:29.262Z,990.33
2018-03-28T16:23:29.199Z,990.34
2018-03-28T16:25:23.750Z,990.19
2018-03-28T16:26:23.623Z,990.22
2018-03-28T16:28:17.447Z,990.16
2018-03-28T16:29:16.983Z,990.14
2018-03-28T16:31:09.668Z,990.09
2018-03-28T16:32:10.097Z,990.11
2018-03-28T16:34:03.260Z,990.09
2018-03-28T16:35:03.235Z,990.00
2018-03-28T16:36:56.667Z,989.99
2018-03-28T16:37:56.395Z,990.04
2018-03-28T16:39:50.205Z,989.99
2018-03-28T16:40:50.237Z,989.96
2018-03-28T16:42:53.768Z,989.84
2018-03-28T16:44:57.597Z,989.82
2018-03-28T16:45:57.455Z,989.85
2018-03-28T16:47:50.821Z,989.79
2018-03-28T16:50:55.436Z,989.76
2018-03-28T16:51:46.699Z,989.70
2018-03-28T16:54:29.172Z,989.75
2018-03-28T16:55:28.667Z,989.73
2018-03-28T16:57:22.771Z,989.73
2018-03-28T16:58:22.605Z,989.65
2018-03-28T17:00:15.689Z,989.61
2018-03-28T17:01:15.439Z,989.60
2018-03-28T17:03:10.470Z,989.58
2018-03-28T17:04:09.340Z,989.59
2018-03-28T17:06:02.320Z,989.64
2018-03-28T17:07:03.532Z,989.59
2018-03-28T17:08:57.643Z,989.58
2018-03-28T17:09:56.231Z,989.56
2018-03-28T17:11:51.586Z,989.60
2018-03-28T17:12:49.454Z,989.62
2018-03-28T17:14:42.436Z,989.60
2018-03-28T17:15:42.783Z,989.58
2018-03-28T17:17:35.155Z,989.60
2018-03-28T17:18:35.134Z,989.58
2018-03-28T17:20:28.793Z,989.59
2018-03-28T17:21:28.489Z,989.54
2018-03-28T17:23:21.988Z,989.59
2018-03-28T17:24:21.851Z,989.59
2018-03-28T17:26:15.409Z,989.57
2018-03-28T17:27:15.228Z,989.61
2018-03-28T17:29:08.677Z,989.63
2018-03-28T17:30:08.658Z,989.64
2018-03-28T17:32:02.047Z,989.65
2018-03-28T17:33:01.993Z,989.62
2018-03-28T17:34:56.221Z,989.57
2018-03-28T17:35:55.353Z,989.57
2018-03-28T17:37:48.752Z,989.59
2018-03-28T17:38:48.726Z,989.63
2018-03-28T17:40:41.680Z,989.62
2018-03-28T17:41:41.608Z,989.59
2018-03-28T17:43:35.032Z,989.64
2018-03-28T17:44:34.941Z,989.65
2018-03-28T17:46:28.367Z,989.67
2018-03-28T17:47:28.311Z,989.71
2018-03-28T17:49:22.772Z,989.73
2018-03-28T17:50:21.667Z,989.71
2018-03-28T17:52:14.589Z,989.75
2018-03-28T17:53:14.556Z,989.76
2018-03-28T17:55:07.950Z,989.79
2018-03-28T17:56:07.918Z,989.76
2018-03-28T17:58:01.316Z,989.68
2018-03-28T17:59:01.305Z,989.73
2018-03-28T18:00:54.730Z,989.80
2018-03-28T18:01:54.641Z,989.79
2018-03-28T18:03:48.682Z,989.85
2018-03-28T18:04:48.205Z,989.85
2018-03-28T18:06:41.114Z,989.87
2018-03-28T18:07:41.078Z,989.91
2018-03-28T18:09:34.567Z,990.06
2018-03-28T18:10:34.421Z,990.02
2018-03-28T18:12:27.402Z,990.01
2018-03-28T18:13:27.867Z,989.97
2018-03-28T18:15:20.700Z,990.02
2018-03-28T18:16:20.644Z,990.01
2018-03-28T18:18:15.039Z,990.14
2018-03-28T18:19:15.005Z,990.16
2018-03-28T18:21:08.483Z,990.23
2018-03-28T18:22:08.384Z,990.33
2018-03-28T18:24:01.353Z,990.47
2018-03-28T18:25:01.240Z,990.54
2018-03-28T18:26:54.225Z,990.63
2018-03-28T18:27:54.094Z,990.58
2018-03-28T18:29:46.988Z,990.66
2018-03-28T18:30:46.956Z,990.70
2018-03-28T18:32:39.849Z,990.56
2018-03-28T18:33:39.825Z,990.64
2018-03-28T18:35:32.722Z,990.69
2018-03-28T18:36:32.680Z,990.75
2018-03-28T18:38:26.184Z,990.81
2018-03-28T18:39:26.059Z,990.76
2018-03-28T18:41:19.525Z,990.77
2018-03-28T18:42:19.411Z,990.88
2018-03-28T18:44:12.414Z,990.96
2018-03-28T18:45:12.266Z,991.01
2018-03-28T18:47:05.753Z,991.18
2018-03-28T18:48:05.649Z,991.13
2018-03-28T18:49:59.025Z,991.12
2018-03-28T18:50:58.999Z,991.21
2018-03-28T18:52:51.921Z,991.35
2018-03-28T18:53:51.858Z,991.40
2018-03-28T18:55:44.851Z,991.46
2018-03-28T18:56:44.724Z,991.58
2018-03-28T18:58:38.176Z,991.67
2018-03-28T18:59:38.112Z,991.57
2018-03-28T19:01:30.990Z,991.71
2018-03-28T19:02:30.972Z,991.81
2018-03-28T19:04:23.852Z,991.94
2018-03-28T19:05:23.822Z,991.95
2018-03-28T19:07:16.717Z,991.95
2018-03-28T19:08:16.694Z,992.06
2018-03-28T19:10:10.140Z,992.15
2018-03-28T19:11:10.048Z,992.17
2018-03-28T19:13:02.963Z,992.26
2018-03-28T19:14:02.932Z,992.42
2018-03-28T19:15:56.294Z,992.44
2018-03-28T19:16:56.275Z,992.51
2018-03-28T19:18:49.857Z,992.59
2018-03-28T19:19:49.627Z,992.59
2018-03-28T19:21:42.765Z,992.84
2018-03-28T19:22:42.476Z,992.86
2018-03-28T19:24:35.412Z,992.99
2018-03-28T19:25:35.338Z,992.95
2018-03-28T19:27:28.240Z,993.06
2018-03-28T19:28:28.202Z,993.16
2018-03-28T19:30:21.659Z,993.26
2018-03-28T19:31:21.566Z,993.27
2018-03-28T19:33:14.973Z,993.23
2018-03-28T19:34:14.905Z,993.38
2018-03-28T19:36:08.351Z,993.37
2018-03-28T19:37:08.285Z,993.39
2018-03-28T19:39:01.648Z,993.51
2018-03-28T19:40:01.620Z,993.54
2018-03-28T19:41:54.517Z,993.53
2018-03-28T19:42:54.549Z,993.70
2018-03-28T19:44:47.442Z,993.62
2018-03-28T19:45:47.344Z,993.67
2018-03-28T19:47:41.318Z,993.69
2018-03-28T19:48:40.695Z,993.67
2018-03-28T19:50:34.173Z,993.63
2018-03-28T19:51:34.063Z,993.76
2018-03-28T19:53:26.948Z,993.81
2018-03-28T19:54:26.916Z,993.84
2018-03-28T19:56:20.378Z,993.83
2018-03-28T19:57:20.757Z,993.84
2018-03-28T19:59:15.637Z,993.91
2018-03-28T20:00:15.620Z,993.97
2018-03-28T20:02:07.583Z,993.95
2018-03-28T20:03:07.512Z,993.98
2018-03-28T20:05:00.541Z,993.93
2018-03-28T20:06:00.370Z,994.10
2018-03-28T20:07:53.467Z,994.08
2018-03-28T20:08:53.233Z,994.10
2018-03-28T20:10:46.112Z,994.17
2018-03-28T20:11:46.086Z,994.10
2018-03-28T20:13:38.969Z,994.28
2018-03-28T20:14:39.534Z,994.29
2018-03-28T20:16:32.074Z,994.28
2018-03-28T20:17:31.795Z,994.34
2018-03-28T20:19:24.917Z,994.44
2018-03-28T20:20:24.718Z,994.39
2018-03-28T20:22:18.334Z,994.43
2018-03-28T20:23:18.032Z,994.45
2018-03-28T20:25:11.406Z,994.49
2018-03-28T20:26:11.397Z,994.54
2018-03-28T20:28:09.839Z,994.59
2018-03-28T20:29:07.260Z,994.52
2018-03-28T20:31:00.318Z,994.63
2018-03-28T20:32:00.151Z,994.62
2018-03-28T20:33:53.041Z,994.64
2018-03-28T20:34:52.999Z,994.71
2018-03-28T20:36:45.911Z,994.65
2018-03-28T20:37:45.862Z,994.70
2018-03-28T20:39:39.305Z,994.61
2018-03-28T20:40:38.707Z,994.86
2018-03-28T20:42:32.138Z,994.90
2018-03-28T20:43:31.866Z,994.67
2018-03-28T20:45:25.035Z,995.04
2018-03-28T20:46:24.740Z,994.94
2018-03-28T20:48:17.743Z,994.98
2018-03-28T20:49:17.565Z,995.08
2018-03-28T20:51:10.969Z,994.99
2018-03-28T20:52:10.934Z,995.20
2018-03-28T20:54:03.810Z,995.19
2018-03-28T20:55:03.785Z,995.21
2018-03-28T20:56:56.989Z,995.30
2018-03-28T20:57:56.945Z,995.27
2018-03-28T20:59:50.062Z,995.45
2018-03-28T21:00:50.373Z,995.35
2018-03-28T21:02:42.701Z,995.38
2018-03-28T21:03:42.668Z,995.49
2018-03-28T21:05:36.214Z,995.55
2018-03-28T21:06:36.029Z,995.51
2018-03-28T21:08:28.903Z,995.61
2018-03-28T21:09:28.889Z,995.64
2018-03-28T21:11:22.065Z,995.68
2018-03-28T21:12:22.036Z,995.75
2018-03-28T21:14:15.504Z,995.75
2018-03-28T21:15:15.390Z,995.76
2018-03-28T21:17:08.484Z,995.79
2018-03-28T21:18:08.824Z,995.84
2018-03-28T21:20:01.217Z,995.84
2018-03-28T21:21:01.110Z,995.90
2018-03-28T21:22:54.249Z,995.90
2018-03-28T21:23:53.991Z,995.95
2018-03-28T21:25:46.973Z,995.99
2018-03-28T21:26:46.864Z,995.93
2018-03-28T21:28:40.219Z,995.98
2018-03-28T21:29:40.181Z,995.95
2018-03-28T21:31:33.251Z,996.05
2018-03-28T21:32:33.615Z,996.03
2018-03-28T21:34:26.140Z,996.02
2018-03-28T21:35:25.926Z,996.05
2018-03-28T21:37:19.490Z,996.14
2018-03-28T21:38:19.255Z,996.18
2018-03-28T21:40:12.632Z,996.18
2018-03-28T21:41:12.604Z,996.30
2018-03-28T21:43:05.979Z,996.33
2018-03-28T21:44:05.482Z,996.34
2018-03-28T21:45:58.674Z,996.44
2018-03-28T21:46:58.370Z,996.37
2018-03-28T21:48:52.136Z,996.48
2018-03-28T21:49:52.732Z,996.51
2018-03-28T21:51:45.349Z,996.51
2018-03-28T21:52:45.702Z,996.51
2018-03-28T21:54:38.726Z,996.62
2018-03-28T21:55:38.476Z,996.59
2018-03-28T21:57:32.338Z,996.64
2018-03-28T21:58:32.246Z,996.66
2018-03-28T22:00:25.618Z,996.63
2018-03-28T22:01:26.168Z,996.68
2018-03-28T22:03:19.235Z,996.70
2018-03-28T22:04:18.946Z,996.72
2018-03-28T22:06:12.066Z,996.87
2018-03-28T22:07:11.782Z,996.79
2018-03-28T22:09:04.700Z,996.91
2018-03-28T22:10:04.658Z,996.94
2018-03-28T22:11:57.639Z,996.95
2018-03-28T22:12:57.524Z,996.84
2018-03-28T22:14:51.096Z,996.96
2018-03-28T22:15:50.889Z,996.98
2018-03-28T22:17:44.617Z,996.98
2018-03-28T22:18:44.226Z,997.08
2018-03-28T22:20:37.611Z,997.09
2018-03-28T22:21:37.560Z,997.10
2018-03-28T22:23:30.980Z,997.12
2018-03-28T22:24:30.932Z,997.10
2018-03-28T22:26:24.504Z,997.20
2018-03-28T22:27:24.405Z,997.16
2018-03-28T22:29:17.669Z,997.17
2018-03-28T22:30:17.639Z,997.19
2018-03-28T22:32:10.861Z,997.26
2018-03-28T22:33:10.508Z,997.26
2018-03-28T22:35:04.264Z,997.27
2018-03-28T22:36:03.848Z,997.30
2018-03-28T22:37:56.798Z,997.38
2018-03-28T22:38:56.727Z,997.39
2018-03-28T22:40:50.128Z,997.38
2018-03-28T22:41:50.057Z,997.43
2018-03-28T22:43:43.143Z,997.45
2018-03-28T22:44:42.945Z,997.45
2018-03-28T22:46:36.322Z,997.47
2018-03-28T22:47:36.271Z,997.46
2018-03-28T22:49:29.665Z,997.47
2018-03-28T22:50:29.643Z,997.52
2018-03-28T22:52:22.532Z,997.55
2018-03-28T22:53:22.501Z,997.59
2018-03-28T22:55:15.607Z,997.59
2018-03-28T22:56:15.339Z,997.68
2018-03-28T22:58:09.092Z,997.64
2018-03-28T22:59:08.721Z,997.66
2018-03-28T23:01:02.349Z,997.63
2018-03-28T23:02:02.054Z,997.70
2018-03-28T23:03:55.715Z,997.75
2018-03-28T23:04:55.398Z,997.75
2018-03-28T23:06:48.846Z,997.79
2018-03-28T23:07:49.339Z,997.82
2018-03-28T23:09:42.225Z,997.88
2018-03-28T23:10:41.902Z,997.86
2018-03-28T23:12:35.511Z,997.93
2018-03-28T23:13:35.257Z,997.96
2018-03-28T23:15:29.868Z,997.96
2018-03-28T23:16:29.591Z,997.92
2018-03-28T23:18:23.238Z,997.97
2018-03-28T23:19:22.949Z,998.02
2018-03-28T23:21:15.878Z,998.05
2018-03-28T23:22:15.825Z,998.03
2018-03-28T23:24:08.969Z,998.08
2018-03-28T23:25:09.744Z,998.07
2018-03-28T23:27:02.382Z,998.10
2018-03-28T23:28:02.116Z,998.14
2018-03-28T23:29:55.267Z,998.15
2018-03-28T23:30:54.987Z,998.17
2018-03-28T23:32:48.585Z,998.15
2018-03-28T23:33:48.342Z,998.15
2018-03-28T23:35:41.922Z,998.23
2018-03-28T23:36:41.695Z,998.21
2018-03-28T23:38:34.602Z,998.25
2018-03-28T23:39:34.536Z,998.21
2018-03-28T23:41:27.712Z,998.21
2018-03-28T23:42:27.415Z,998.20
2018-03-28T23:44:20.989Z,998.24
2018-03-28T23:45:20.770Z,998.25
2018-03-28T23:47:14.320Z,998.23
2018-03-28T23:48:14.143Z,998.24
2018-03-28T23:50:07.013Z,998.26
2018-03-28T23:51:06.969Z,998.24
2018-03-28T23:52:59.848Z,998.28
2018-03-28T23:53:59.818Z,998.26
2018-03-28T23:55:52.922Z,998.30
2018-03-28T23:56:52.700Z,998.28
2018-03-28T23:58:45.563Z,998.32
2018-03-28T23:59:45.530Z,998.28
